Meriden, Kansas
Current Conditions -  °F | °C
As of 8:53 AM on Monday 22 Dec 2014 (Local Time) from KFOE Reporting Station
Light Rain Light Rain  
Wind Chill: 41°   Ceiling: 400
Heat Index: 45°   Visibility: 3mi
Dew Point: 43°   Wind: 8mph
Humidity: 93%   Direction: 170°S
Pressure: 29.55"   Gusts: NA
Location:  39.19°N, 95.57°W
Report Text: KFOE 221453Z 17007KT 3SM -RA BR OVC004 07/06 A2955 RMK AO2 RAB20 SLP009 P0003 60003 T00720061 56009
Loading
Personal Weather Stations






























Interactive Weather Map New forecast layout! Learn more

10-Day Weather Forecast

Advertisements
Track Severe Weather on mobile